Time;durP1;ratioP1;P1;durP2;ratioP2;P2;SDS_P1;SDS_P2;PMS_P1;PMS_P2;Temp;Humidity;BMP_temperature;BMP_pressure;BME280_temperature;BME280_humidity;BME280_pressure;Samples;Min_cycle;Max_cycle;Signal;HPM_P1;HPM_P2
2023/03/21 00:00:52;;;;;;;;;;;;;;;;;;4967308;28;19940;-63
2023/03/21 00:03:17;;;;;;;;;;;;;;;;;;4980843;28;20505;-64
2023/03/21 00:05:48;;;;;;;;;;;;;;;;;;4965718;28;19917;-63
2023/03/21 00:08:16;;;;;;;;;;;;;;;;;;4985263;28;20003;-64
2023/03/21 00:10:44;;;;;;;;;;;;;;;;;;4981246;28;20556;-63
2023/03/21 00:13:12;;;;;;;;;;;;;;;;;;4983676;28;20312;-64
2023/03/21 00:15:48;;;;;;;;;;;;;;;;;;4984288;28;20404;-64
2023/03/21 00:18:16;;;;;;;;;;;;;;;;;;4981862;28;19948;-64
2023/03/21 00:20:46;;;;;;;;;;;;;;;;;;4983399;28;20242;-64
2023/03/21 00:23:11;;;;;;;;;;;;;;;;;;4982710;28;20581;-63
2023/03/21 00:25:36;;;;;;;;;;;;;;;;;;4983100;28;20456;-64
2023/03/21 00:28:01;;;;;;;;;;;;;;;;;;4983877;28;19923;-65
2023/03/21 00:30:29;;;;;;;;;;;;;;;;;;4968559;28;19952;-65
2023/03/21 00:32:57;;;;;;;;;;;;;;;;;;4966983;28;19929;-64
2023/03/21 00:35:22;;;;;;;;;;;;;;;;;;4981583;28;20478;-65
2023/03/21 00:37:48;;;;;;;;;;;;;;;;;;4965781;28;19928;-66
2023/03/21 00:40:13;;;;;;;;;;;;;;;;;;4964904;28;19940;-66
2023/03/21 00:42:38;;;;;;;;;;;;;;;;;;4982303;28;20585;-66
2023/03/21 00:45:05;;;;;;;;;;;;;;;;;;4982946;28;20027;-66
2023/03/21 00:47:30;;;;;;;;;;;;;;;;;;4980278;28;20372;-65
2023/03/21 00:49:58;;;;;;;;;;;;;;;;;;4980495;28;20045;-65
2023/03/21 00:52:24;;;;;;;;;;;;;;;;;;4981174;28;19917;-65
2023/03/21 00:54:52;;;;;;;;;;;;;;;;;;4983134;28;20010;-65
2023/03/21 00:57:20;;;;;;;;;;;;;;;;;;4982887;28;19961;-65
2023/03/21 00:59:48;;;;;;;;;;;;;;;;;;4981800;28;19929;-65
2023/03/21 01:02:21;;;;;;;;;;;;;;;;;;4966702;28;19921;-65
2023/03/21 01:04:46;;;;;;;;;;;;;;;;;;4978470;28;19924;-63
2023/03/21 01:07:11;;;;;;;;;;;;;;;;;;4978862;28;20006;-66
2023/03/21 01:09:37;;;;;;;;;;;;;;;;;;4966496;28;20511;-65
2023/03/21 01:12:03;;;;;;;;;;;;;;;;;;4962960;28;20345;-65
2023/03/21 01:14:28;;;;;;;;;;;;;;;;;;4981632;28;20081;-65
2023/03/21 01:16:53;;;;;;;;;;;;;;;;;;4980407;28;19926;-65
2023/03/21 01:19:18;;;;;;;;;;;;;;;;;;4981082;28;20300;-66
2023/03/21 01:21:44;;;;;;;;;;;;;;;;;;4981281;28;20610;-65
2023/03/21 01:24:09;;;;;;;;;;;;;;;;;;4980360;28;19991;-67
2023/03/21 01:26:36;;;;;;;;;;;;;;;;;;4983541;28;19917;-66
2023/03/21 01:29:01;;;;;;;;;;;;;;;;;;4981656;28;20446;-66
2023/03/21 01:31:29;;;;;;;;;;;;;;;;;;4983628;28;19930;-66
2023/03/21 01:33:57;;;;;;;;;;;;;;;;;;4978601;28;20000;-66
2023/03/21 01:36:25;;;;;;;;;;;;;;;;;;4964948;28;19921;-66
2023/03/21 01:38:52;;;;;;;;;;;;;;;;;;4980266;28;19921;-66
2023/03/21 01:41:18;;;;;;;;;;;;;;;;;;4967907;28;20019;-66
2023/03/21 01:43:43;;;;;;;;;;;;;;;;;;4982454;28;19917;-67
2023/03/21 01:46:08;;;;;;;;;;;;;;;;;;4981590;28;20319;-67
2023/03/21 01:48:34;;;;;;;;;;;;;;;;;;4963933;28;19928;-66
2023/03/21 01:51:02;;;;;;;;;;;;;;;;;;4980099;28;19936;-67
2023/03/21 01:53:33;;;;;;;;;;;;;;;;;;4977810;28;19944;-66
2023/03/21 01:56:00;;;;;;;;;;;;;;;;;;4978913;28;20360;-66
2023/03/21 01:58:26;;;;;;;;;;;;;;;;;;4965050;28;19926;-67
2023/03/21 02:00:52;;;;;;;;;;;;;;;;;;4982704;28;19972;-64
2023/03/21 02:03:17;;;;;;;;;;;;;;;;;;4980062;28;20032;-64
2023/03/21 02:05:46;;;;;;;;;;;;;;;;;;4981817;28;20451;-66
2023/03/21 02:08:12;;;;;;;;;;;;;;;;;;4979988;28;19917;-67
2023/03/21 02:10:37;;;;;;;;;;;;;;;;;;4979779;28;20815;-67
2023/03/21 02:13:08;;;;;;;;;;;;;;;;;;4980770;28;19974;-66
2023/03/21 02:15:36;;;;;;;;;;;;;;;;;;4980770;28;19928;-66
2023/03/21 02:18:01;;;;;;;;;;;;;;;;;;4982132;28;19972;-65
2023/03/21 02:20:26;;;;;;;;;;;;;;;;;;4963868;28;19960;-66
2023/03/21 02:22:52;;;;;;;;;;;;;;;;;;4979051;28;20042;-67
2023/03/21 02:25:17;;;;;;;;;;;;;;;;;;4982432;28;19921;-67
2023/03/21 02:30:27;;;;;;;;;;;;;;;;;;4980682;28;19929;-66
2023/03/21 02:32:53;;;;;;;;;;;;;;;;;;4980387;28;20034;-65
2023/03/21 02:35:18;;;;;;;;;;;;;;;;;;4981690;28;20364;-65
2023/03/21 02:37:44;;;;;;;;;;;;;;;;;;4983185;28;19964;-67
2023/03/21 02:40:12;;;;;;;;;;;;;;;;;;4978029;28;20545;-66
2023/03/21 02:42:37;;;;;;;;;;;;;;;;;;4983593;28;19922;-67
2023/03/21 02:45:02;;;;;;;;;;;;;;;;;;4994988;28;19933;-67
2023/03/21 02:47:29;;;;;;;;;;;;;;;;;;4966000;28;19995;-66
2023/03/21 02:49:55;;;;;;;;;;;;;;;;;;4979868;28;20000;-66
2023/03/21 02:52:21;;;;;;;;;;;;;;;;;;4980965;28;19933;-67
2023/03/21 02:54:47;;;;;;;;;;;;;;;;;;4980668;28;19987;-64
2023/03/21 02:57:12;;;;;;;;;;;;;;;;;;4979926;28;20072;-65
2023/03/21 02:59:38;;;;;;;;;;;;;;;;;;4964222;28;20225;-67
2023/03/21 03:02:03;;;;;;;;;;;;;;;;;;4962246;28;20044;-66
2023/03/21 03:04:29;;;;;;;;;;;;;;;;;;4980188;28;19964;-66
2023/03/21 03:06:55;;;;;;;;;;;;;;;;;;4964688;28;20554;-66
2023/03/21 03:09:26;;;;;;;;;;;;;;;;;;4980268;28;20488;-66
2023/03/21 03:11:54;;;;;;;;;;;;;;;;;;4974769;28;19949;-66
2023/03/21 03:14:24;;;;;;;;;;;;;;;;;;4959898;28;19928;-66
2023/03/21 03:16:50;;;;;;;;;;;;;;;;;;4978701;28;19932;-65
2023/03/21 03:19:18;;;;;;;;;;;;;;;;;;4967592;28;19976;-65
2023/03/21 03:21:43;;;;;;;;;;;;;;;;;;4985584;28;19921;-67
2023/03/21 03:24:09;;;;;;;;;;;;;;;;;;4967428;28;19923;-66
2023/03/21 03:26:36;;;;;;;;;;;;;;;;;;4983744;28;20016;-66
2023/03/21 03:29:05;;;;;;;;;;;;;;;;;;4984710;28;19968;-66
2023/03/21 03:31:33;;;;;;;;;;;;;;;;;;4983031;28;19917;-65
2023/03/21 03:33:58;;;;;;;;;;;;;;;;;;4967959;28;19921;-66
2023/03/21 03:36:26;;;;;;;;;;;;;;;;;;4984010;28;19925;-66
2023/03/21 03:38:51;;;;;;;;;;;;;;;;;;4982501;28;19917;-66
2023/03/21 03:41:19;;;;;;;;;;;;;;;;;;4967203;28;19961;-65
2023/03/21 03:43:49;;;;;;;;;;;;;;;;;;4967954;28;19925;-67
2023/03/21 03:46:18;;;;;;;;;;;;;;;;;;4965547;28;19999;-66
2023/03/21 03:48:45;;;;;;;;;;;;;;;;;;4983814;28;19917;-65
2023/03/21 03:51:12;;;;;;;;;;;;;;;;;;4982495;28;20432;-64
2023/03/21 03:53:37;;;;;;;;;;;;;;;;;;4985866;28;21522;-66
2023/03/21 03:56:03;;;;;;;;;;;;;;;;;;4983990;28;20168;-65
2023/03/21 03:58:38;;;;;;;;;;;;;;;;;;4981271;28;19917;-66
2023/03/21 04:01:07;;;;;;;;;;;;;;;;;;4985088;28;19917;-67
2023/03/21 04:03:32;;;;;;;;;;;;;;;;;;4977199;28;19936;-67
2023/03/21 04:05:58;;;;;;;;;;;;;;;;;;4968119;28;20055;-67
2023/03/21 04:08:23;;;;;;;;;;;;;;;;;;4984408;28;19973;-66
2023/03/21 04:10:51;;;;;;;;;;;;;;;;;;4984387;28;20200;-66
2023/03/21 04:13:16;;;;;;;;;;;;;;;;;;4980568;28;20551;-66
2023/03/21 04:15:41;;;;;;;;;;;;;;;;;;4978769;28;21361;-66
2023/03/21 04:18:06;;;;;;;;;;;;;;;;;;4966662;28;19932;-68
2023/03/21 04:20:34;;;;;;;;;;;;;;;;;;4981246;28;19957;-66
2023/03/21 04:22:59;;;;;;;;;;;;;;;;;;4982238;28;20028;-66
2023/03/21 04:25:27;;;;;;;;;;;;;;;;;;4981792;28;19976;-67
2023/03/21 04:27:54;;;;;;;;;;;;;;;;;;4981882;28;19941;-67
2023/03/21 04:30:19;;;;;;;;;;;;;;;;;;4984133;28;19954;-68
2023/03/21 04:32:46;;;;;;;;;;;;;;;;;;4982346;28;20318;-68
2023/03/21 04:35:14;;;;;;;;;;;;;;;;;;4983209;28;19918;-67
2023/03/21 04:37:40;;;;;;;;;;;;;;;;;;4967681;28;19925;-67
2023/03/21 04:40:09;;;;;;;;;;;;;;;;;;4984150;28;19921;-67
2023/03/21 04:42:34;;;;;;;;;;;;;;;;;;4975737;28;21480;-68
2023/03/21 04:45:00;;;;;;;;;;;;;;;;;;4983139;28;19939;-67
2023/03/21 04:47:25;;;;;;;;;;;;;;;;;;4983317;28;20075;-66
2023/03/21 04:49:53;;;;;;;;;;;;;;;;;;4981614;28;19922;-67
2023/03/21 04:52:21;;;;;;;;;;;;;;;;;;4982353;28;19944;-66
2023/03/21 04:54:46;;;;;;;;;;;;;;;;;;4983530;28;21605;-67
2023/03/21 04:57:12;;;;;;;;;;;;;;;;;;4983953;28;20762;-66
2023/03/21 04:59:37;;;;;;;;;;;;;;;;;;4983845;28;20846;-67
2023/03/21 05:02:05;;;;;;;;;;;;;;;;;;4965980;28;20325;-68
2023/03/21 05:04:30;;;;;;;;;;;;;;;;;;4962340;28;19922;-67
2023/03/21 05:06:56;;;;;;;;;;;;;;;;;;4982633;28;20050;-65
2023/03/21 05:09:21;;;;;;;;;;;;;;;;;;4964858;28;19925;-67
2023/03/21 05:11:46;;;;;;;;;;;;;;;;;;4982738;28;20385;-67
2023/03/21 05:14:15;;;;;;;;;;;;;;;;;;4983123;28;19961;-68
2023/03/21 05:16:54;;;;;;;;;;;;;;;;;;4978650;28;19936;-67
2023/03/21 05:19:21;;;;;;;;;;;;;;;;;;4981315;28;20292;-67
2023/03/21 05:21:47;;;;;;;;;;;;;;;;;;4981124;28;19917;-67
2023/03/21 05:24:13;;;;;;;;;;;;;;;;;;4977955;28;20487;-67
2023/03/21 05:26:38;;;;;;;;;;;;;;;;;;4981306;28;19921;-68
2023/03/21 05:29:03;;;;;;;;;;;;;;;;;;4982235;28;19931;-66
2023/03/21 05:31:28;;;;;;;;;;;;;;;;;;4964011;28;19924;-66
2023/03/21 05:33:54;;;;;;;;;;;;;;;;;;4967032;28;19967;-66
2023/03/21 05:36:19;;;;;;;;;;;;;;;;;;4965390;28;20254;-67
2023/03/21 05:38:45;;;;;;;;;;;;;;;;;;4982135;28;20285;-67
2023/03/21 05:41:10;;;;;;;;;;;;;;;;;;4979120;28;19928;-66
2023/03/21 05:43:38;;;;;;;;;;;;;;;;;;4981692;28;19923;-67
2023/03/21 05:46:06;;;;;;;;;;;;;;;;;;4963884;28;20033;-68
2023/03/21 05:48:31;;;;;;;;;;;;;;;;;;4979689;28;19921;-68
2023/03/21 05:50:57;;;;;;;;;;;;;;;;;;4980174;28;20096;-68
2023/03/21 05:53:22;;;;;;;;;;;;;;;;;;4978985;28;19925;-69
2023/03/21 05:55:47;;;;;;;;;;;;;;;;;;4964459;28;19921;-68
2023/03/21 05:58:13;;;;;;;;;;;;;;;;;;4983564;28;19925;-68
2023/03/21 06:00:38;;;;;;;;;;;;;;;;;;4980584;28;20494;-69
2023/03/21 06:03:04;;;;;;;;;;;;;;;;;;4983403;28;19922;-68
2023/03/21 06:05:29;;;;;;;;;;;;;;;;;;4980769;28;19979;-68
2023/03/21 06:07:54;;;;;;;;;;;;;;;;;;4980662;28;20060;-70
2023/03/21 06:10:19;;;;;;;;;;;;;;;;;;4977688;28;19922;-69
2023/03/21 06:12:45;;;;;;;;;;;;;;;;;;4980673;28;19931;-70
2023/03/21 06:15:10;;;;;;;;;;;;;;;;;;4981832;28;21438;-70
2023/03/21 06:17:36;;;;;;;;;;;;;;;;;;4983121;28;19933;-69
2023/03/21 06:20:03;;;;;;;;;;;;;;;;;;4964417;28;19923;-69
2023/03/21 06:22:29;;;;;;;;;;;;;;;;;;4974783;28;20020;-70
2023/03/21 06:24:54;;;;;;;;;;;;;;;;;;4979282;28;20015;-69
2023/03/21 06:27:19;;;;;;;;;;;;;;;;;;4983203;28;20211;-68
2023/03/21 06:29:45;;;;;;;;;;;;;;;;;;4979486;28;20031;-70
2023/03/21 06:32:10;;;;;;;;;;;;;;;;;;4983579;28;20015;-70
2023/03/21 06:34:36;;;;;;;;;;;;;;;;;;4980113;28;19922;-68
2023/03/21 06:37:02;;;;;;;;;;;;;;;;;;4960761;28;19939;-69
2023/03/21 06:39:28;;;;;;;;;;;;;;;;;;4977099;28;19936;-68
2023/03/21 06:41:54;;;;;;;;;;;;;;;;;;4981845;28;19921;-68
2023/03/21 06:44:23;;;;;;;;;;;;;;;;;;4965357;28;19921;-68
2023/03/21 06:46:48;;;;;;;;;;;;;;;;;;4978532;28;20448;-68
2023/03/21 06:49:16;;;;;;;;;;;;;;;;;;4978629;28;20254;-68
2023/03/21 06:51:41;;;;;;;;;;;;;;;;;;4981822;28;20108;-67
2023/03/21 06:54:07;;;;;;;;;;;;;;;;;;4980068;28;20671;-68
2023/03/21 06:56:32;;;;;;;;;;;;;;;;;;4984930;28;20141;-67
2023/03/21 06:58:58;;;;;;;;;;;;;;;;;;4984777;28;19948;-68
2023/03/21 07:01:23;;;;;;;;;;;;;;;;;;4980190;28;19971;-68
2023/03/21 07:03:48;;;;;;;;;;;;;;;;;;4987620;28;20348;-69
2023/03/21 07:06:16;;;;;;;;;;;;;;;;;;4982488;28;19924;-70
2023/03/21 07:08:41;;;;;;;;;;;;;;;;;;4986622;28;19917;-69
2023/03/21 07:11:07;;;;;;;;;;;;;;;;;;4982882;28;20000;-68
2023/03/21 07:13:32;;;;;;;;;;;;;;;;;;4984668;28;20550;-67
2023/03/21 07:15:58;;;;;;;;;;;;;;;;;;4984319;28;20479;-67
2023/03/21 07:18:23;;;;;;;;;;;;;;;;;;4985678;28;19921;-67
2023/03/21 07:20:49;;;;;;;;;;;;;;;;;;4984477;28;19983;-68
2023/03/21 07:23:15;;;;;;;;;;;;;;;;;;4983224;28;19922;-68
2023/03/21 07:25:41;;;;;;;;;;;;;;;;;;4983823;28;21644;-67
2023/03/21 07:28:07;;;;;;;;;;;;;;;;;;4982846;28;19929;-68
2023/03/21 07:30:35;;;;;;;;;;;;;;;;;;4979866;28;19928;-68
2023/03/21 07:33:00;;;;;;;;;;;;;;;;;;4983469;28;20233;-67
2023/03/21 07:35:26;;;;;;;;;;;;;;;;;;4984039;28;19928;-66
2023/03/21 07:37:51;;;;;;;;;;;;;;;;;;4966610;28;19925;-67
2023/03/21 07:40:16;;;;;;;;;;;;;;;;;;4984695;28;20438;-67
2023/03/21 07:42:42;;;;;;;;;;;;;;;;;;4983462;28;19917;-67
2023/03/21 07:45:07;;;;;;;;;;;;;;;;;;4985766;28;20022;-67
2023/03/21 07:47:32;;;;;;;;;;;;;;;;;;4982627;28;19976;-67
2023/03/21 07:50:00;;;;;;;;;;;;;;;;;;4985956;28;19927;-67
2023/03/21 07:52:25;;;;;;;;;;;;;;;;;;4978161;28;19922;-67
2023/03/21 07:54:51;;;;;;;;;;;;;;;;;;4983463;28;20112;-64
2023/03/21 07:57:16;;;;;;;;;;;;;;;;;;4979852;28;19921;-68
2023/03/21 07:59:42;;;;;;;;;;;;;;;;;;4983346;28;21459;-68
2023/03/21 08:02:07;;;;;;;;;;;;;;;;;;4968132;28;19929;-68
2023/03/21 08:04:35;;;;;;;;;;;;;;;;;;4981450;28;19991;-68
2023/03/21 08:07:02;;;;;;;;;;;;;;;;;;4985312;28;19972;-68
2023/03/21 08:09:28;;;;;;;;;;;;;;;;;;4981660;28;20500;-67
2023/03/21 08:11:55;;;;;;;;;;;;;;;;;;4980962;28;20451;-66
2023/03/21 08:14:20;;;;;;;;;;;;;;;;;;4983161;28;20512;-66
2023/03/21 08:16:46;;;;;;;;;;;;;;;;;;4983333;28;19931;-67
2023/03/21 08:19:13;;;;;;;;;;;;;;;;;;4982488;28;19922;-67
2023/03/21 08:21:39;;;;;;;;;;;;;;;;;;4966416;28;20096;-67
2023/03/21 08:24:05;;;;;;;;;;;;;;;;;;4983423;28;19921;-68
2023/03/21 08:26:31;;;;;;;;;;;;;;;;;;4982659;28;19918;-67
2023/03/21 08:28:56;;;;;;;;;;;;;;;;;;4984466;28;19925;-66
2023/03/21 08:31:24;;;;;;;;;;;;;;;;;;4986039;28;19960;-67
2023/03/21 08:33:53;;;;;;;;;;;;;;;;;;4969044;28;19922;-67
2023/03/21 08:36:18;;;;;;;;;;;;;;;;;;4982170;28;19994;-67
2023/03/21 08:38:45;;;;;;;;;;;;;;;;;;4982896;28;20159;-68
2023/03/21 08:41:10;;;;;;;;;;;;;;;;;;4965364;28;20150;-67
2023/03/21 08:43:36;;;;;;;;;;;;;;;;;;4983310;28;20131;-68
2023/03/21 08:46:03;;;;;;;;;;;;;;;;;;4984162;28;20026;-68
2023/03/21 08:48:28;;;;;;;;;;;;;;;;;;4984001;28;19924;-69
2023/03/21 08:50:53;;;;;;;;;;;;;;;;;;4983445;28;19922;-68
2023/03/21 08:53:19;;;;;;;;;;;;;;;;;;4983190;28;20368;-69
2023/03/21 08:55:44;;;;;;;;;;;;;;;;;;4981228;28;20562;-67
2023/03/21 08:58:11;;;;;;;;;;;;;;;;;;4980533;28;20342;-68
2023/03/21 09:00:37;;;;;;;;;;;;;;;;;;4984535;28;20082;-67
2023/03/21 09:03:03;;;;;;;;;;;;;;;;;;4965895;28;19928;-68
2023/03/21 09:05:29;;;;;;;;;;;;;;;;;;4983373;28;19959;-70
2023/03/21 09:07:54;;;;;;;;;;;;;;;;;;4981967;28;20067;-68
2023/03/21 09:10:22;;;;;;;;;;;;;;;;;;4982097;28;20537;-67
2023/03/21 09:12:48;;;;;;;;;;;;;;;;;;4964209;28;19929;-68
2023/03/21 09:15:13;;;;;;;;;;;;;;;;;;4982252;28;19918;-69
2023/03/21 09:17:42;;;;;;;;;;;;;;;;;;4982263;28;19929;-68
2023/03/21 09:20:10;;;;;;;;;;;;;;;;;;4980636;28;20340;-69
2023/03/21 09:22:35;;;;;;;;;;;;;;;;;;4996678;28;19929;-68
2023/03/21 09:25:01;;;;;;;;;;;;;;;;;;4980265;28;20330;-68
2023/03/21 09:27:27;;;;;;;;;;;;;;;;;;4966401;28;19917;-69
2023/03/21 09:29:56;;;;;;;;;;;;;;;;;;4981886;28;19921;-68
2023/03/21 09:32:22;;;;;;;;;;;;;;;;;;4981418;28;21345;-68
2023/03/21 09:34:47;;;;;;;;;;;;;;;;;;4966930;28;19967;-68
2023/03/21 09:37:14;;;;;;;;;;;;;;;;;;4981359;28;19929;-68
2023/03/21 09:39:41;;;;;;;;;;;;;;;;;;4980353;28;19921;-67
2023/03/21 09:42:07;;;;;;;;;;;;;;;;;;4966252;28;21415;-68
2023/03/21 09:44:32;;;;;;;;;;;;;;;;;;4964797;28;19918;-67
2023/03/21 09:47:02;;;;;;;;;;;;;;;;;;4966661;28;19924;-67
2023/03/21 09:49:31;;;;;;;;;;;;;;;;;;4965158;28;19917;-67
2023/03/21 09:51:57;;;;;;;;;;;;;;;;;;4979958;28;19929;-67
2023/03/21 09:54:26;;;;;;;;;;;;;;;;;;4983181;28;19971;-67
2023/03/21 09:56:51;;;;;;;;;;;;;;;;;;4979455;28;20559;-67
2023/03/21 09:59:16;;;;;;;;;;;;;;;;;;4982892;28;20076;-66
2023/03/21 10:01:44;;;;;;;;;;;;;;;;;;4982034;28;19917;-67
2023/03/21 10:04:10;;;;;;;;;;;;;;;;;;4982802;28;19917;-68
2023/03/21 10:06:38;;;;;;;;;;;;;;;;;;4981207;28;20773;-66
2023/03/21 10:09:05;;;;;;;;;;;;;;;;;;4981411;28;19990;-67
2023/03/21 10:11:30;;;;;;;;;;;;;;;;;;4982503;28;19921;-67
2023/03/21 10:13:56;;;;;;;;;;;;;;;;;;4982090;28;19979;-67
2023/03/21 10:16:21;;;;;;;;;;;;;;;;;;4981555;28;19976;-68
2023/03/21 10:18:46;;;;;;;;;;;;;;;;;;4975673;28;19929;-67
2023/03/21 10:21:15;;;;;;;;;;;;;;;;;;4980790;28;20008;-67
2023/03/21 10:23:40;;;;;;;;;;;;;;;;;;4980618;28;20341;-67
2023/03/21 10:26:06;;;;;;;;;;;;;;;;;;4981949;28;19932;-68
2023/03/21 10:28:32;;;;;;;;;;;;;;;;;;4980050;28;20081;-67
2023/03/21 10:30:57;;;;;;;;;;;;;;;;;;4962383;28;20810;-68
2023/03/21 10:33:23;;;;;;;;;;;;;;;;;;4982505;28;19917;-68
2023/03/21 10:35:48;;;;;;;;;;;;;;;;;;4964021;28;19921;-67
2023/03/21 10:38:14;;;;;;;;;;;;;;;;;;4979189;28;20036;-67
2023/03/21 10:40:39;;;;;;;;;;;;;;;;;;4980653;28;19921;-67
2023/03/21 10:43:04;;;;;;;;;;;;;;;;;;4979223;28;19918;-67
2023/03/21 10:45:30;;;;;;;;;;;;;;;;;;4967039;28;19928;-67
2023/03/21 10:47:56;;;;;;;;;;;;;;;;;;4982824;28;20021;-67
2023/03/21 10:50:26;;;;;;;;;;;;;;;;;;4981254;28;19984;-67
2023/03/21 10:52:54;;;;;;;;;;;;;;;;;;4979442;28;19964;-67
2023/03/21 10:55:20;;;;;;;;;;;;;;;;;;4982856;28;19917;-67
2023/03/21 10:57:45;;;;;;;;;;;;;;;;;;4981078;28;19936;-65
2023/03/21 11:00:17;;;;;;;;;;;;;;;;;;4982743;28;20027;-66
2023/03/21 11:02:42;;;;;;;;;;;;;;;;;;4981801;28;19918;-67
2023/03/21 11:05:07;;;;;;;;;;;;;;;;;;4964451;28;20447;-66
2023/03/21 11:07:33;;;;;;;;;;;;;;;;;;4979773;28;20012;-66
2023/03/21 11:09:58;;;;;;;;;;;;;;;;;;4982534;28;20044;-66
2023/03/21 11:12:24;;;;;;;;;;;;;;;;;;4961788;28;19925;-67
2023/03/21 11:14:49;;;;;;;;;;;;;;;;;;4963841;28;19922;-65
2023/03/21 11:17:15;;;;;;;;;;;;;;;;;;4979702;28;20039;-67
2023/03/21 11:19:43;;;;;;;;;;;;;;;;;;4963737;28;19987;-65
2023/03/21 11:22:09;;;;;;;;;;;;;;;;;;4980472;28;20549;-67
2023/03/21 11:24:34;;;;;;;;;;;;;;;;;;4963783;28;19925;-67
2023/03/21 11:27:00;;;;;;;;;;;;;;;;;;4982065;28;20464;-66
2023/03/21 11:29:25;;;;;;;;;;;;;;;;;;4980781;28;21994;-66
2023/03/21 11:31:51;;;;;;;;;;;;;;;;;;4980194;28;20361;-66
2023/03/21 11:34:16;;;;;;;;;;;;;;;;;;4979895;28;20044;-66
2023/03/21 11:36:41;;;;;;;;;;;;;;;;;;4962962;28;20456;-66
2023/03/21 11:39:07;;;;;;;;;;;;;;;;;;4981677;28;20035;-66
2023/03/21 11:41:35;;;;;;;;;;;;;;;;;;4966406;28;20019;-65
2023/03/21 11:44:00;;;;;;;;;;;;;;;;;;4966889;28;20111;-65
2023/03/21 11:46:25;;;;;;;;;;;;;;;;;;4984544;28;19925;-66
2023/03/21 11:48:51;;;;;;;;;;;;;;;;;;4966888;28;19925;-66
2023/03/21 11:51:16;;;;;;;;;;;;;;;;;;4982277;28;20396;-66
2023/03/21 11:53:41;;;;;;;;;;;;;;;;;;4969206;28;20354;-66
2023/03/21 11:56:07;;;;;;;;;;;;;;;;;;4983312;28;19922;-66
2023/03/21 11:58:34;;;;;;;;;;;;;;;;;;4980425;28;20063;-67
2023/03/21 12:01:00;;;;;;;;;;;;;;;;;;4982266;28;19922;-65
2023/03/21 12:03:25;;;;;;;;;;;;;;;;;;4980748;28;19940;-64
2023/03/21 12:05:53;;;;;;;;;;;;;;;;;;4982126;28;19980;-64
2023/03/21 12:08:21;;;;;;;;;;;;;;;;;;4983066;28;20573;-65
2023/03/21 12:10:47;;;;;;;;;;;;;;;;;;4982384;28;19929;-66
2023/03/21 12:13:12;;;;;;;;;;;;;;;;;;4983938;28;20245;-66
2023/03/21 12:15:37;;;;;;;;;;;;;;;;;;4984184;28;20295;-68
2023/03/21 12:18:03;;;;;;;;;;;;;;;;;;4984472;28;20171;-66
2023/03/21 12:20:29;;;;;;;;;;;;;;;;;;4984339;28;19992;-66
2023/03/21 12:22:56;;;;;;;;;;;;;;;;;;4983336;28;19960;-65
2023/03/21 12:25:22;;;;;;;;;;;;;;;;;;4981773;28;19917;-65
2023/03/21 12:27:50;;;;;;;;;;;;;;;;;;4984984;28;19922;-66
2023/03/21 12:30:15;;;;;;;;;;;;;;;;;;4981068;28;19925;-65
2023/03/21 12:32:43;;;;;;;;;;;;;;;;;;4979670;28;20672;-65
2023/03/21 12:35:09;;;;;;;;;;;;;;;;;;4980122;28;19921;-65
2023/03/21 12:37:39;;;;;;;;;;;;;;;;;;4984709;28;19921;-65
2023/03/21 12:40:07;;;;;;;;;;;;;;;;;;4966682;28;20020;-66
2023/03/21 12:42:37;;;;;;;;;;;;;;;;;;4984842;28;20019;-65
2023/03/21 12:45:03;;;;;;;;;;;;;;;;;;4981167;28;19921;-65
2023/03/21 12:47:28;;;;;;;;;;;;;;;;;;4984269;28;20170;-64
2023/03/21 12:49:54;;;;;;;;;;;;;;;;;;4981939;28;20004;-67
2023/03/21 12:52:20;;;;;;;;;;;;;;;;;;4967681;28;19917;-64
2023/03/21 12:54:45;;;;;;;;;;;;;;;;;;4983215;28;19968;-65
2023/03/21 12:57:10;;;;;;;;;;;;;;;;;;4982031;28;20040;-65
2023/03/21 12:59:36;;;;;;;;;;;;;;;;;;4982076;28;20003;-65
2023/03/21 13:02:01;;;;;;;;;;;;;;;;;;4962881;28;20220;-64
2023/03/21 13:04:29;;;;;;;;;;;;;;;;;;4981085;28;19928;-65
2023/03/21 13:06:54;;;;;;;;;;;;;;;;;;4980859;28;19965;-64
2023/03/21 13:09:22;;;;;;;;;;;;;;;;;;4981502;28;19957;-66
2023/03/21 13:11:47;;;;;;;;;;;;;;;;;;4981252;28;19926;-66
2023/03/21 13:14:13;;;;;;;;;;;;;;;;;;4980749;28;20456;-66
2023/03/21 13:16:38;;;;;;;;;;;;;;;;;;4976977;28;20003;-67
2023/03/21 13:19:06;;;;;;;;;;;;;;;;;;4980508;28;19929;-67
2023/03/21 13:21:31;;;;;;;;;;;;;;;;;;4984447;28;20405;-67
2023/03/21 13:23:56;;;;;;;;;;;;;;;;;;4997133;28;20073;-68
2023/03/21 13:26:24;;;;;;;;;;;;;;;;;;4982824;28;19976;-68
2023/03/21 13:28:52;;;;;;;;;;;;;;;;;;4979524;28;19996;-69
2023/03/21 13:31:20;;;;;;;;;;;;;;;;;;4966084;28;19921;-68
2023/03/21 13:33:46;;;;;;;;;;;;;;;;;;4980862;28;20388;-70
2023/03/21 13:36:11;;;;;;;;;;;;;;;;;;4964753;28;19917;-70
2023/03/21 13:38:40;;;;;;;;;;;;;;;;;;4963198;28;19929;-70
2023/03/21 13:41:07;;;;;;;;;;;;;;;;;;4982558;28;20381;-69
2023/03/21 13:43:33;;;;;;;;;;;;;;;;;;4981944;28;19917;-68
2023/03/21 13:46:00;;;;;;;;;;;;;;;;;;4983089;28;19918;-68
2023/03/21 13:48:26;;;;;;;;;;;;;;;;;;4981947;28;19944;-67
2023/03/21 13:50:51;;;;;;;;;;;;;;;;;;4978632;28;20313;-66
2023/03/21 13:53:16;;;;;;;;;;;;;;;;;;4964510;28;19998;-68
2023/03/21 13:55:43;;;;;;;;;;;;;;;;;;4979199;28;19925;-68
2023/03/21 13:58:10;;;;;;;;;;;;;;;;;;4983968;28;20084;-68
2023/03/21 14:00:36;;;;;;;;;;;;;;;;;;4980130;28;19960;-68
2023/03/21 14:03:02;;;;;;;;;;;;;;;;;;4980763;28;20487;-68
2023/03/21 14:05:28;;;;;;;;;;;;;;;;;;4980077;28;20158;-67
2023/03/21 14:07:56;;;;;;;;;;;;;;;;;;4980450;28;20323;-67
2023/03/21 14:10:21;;;;;;;;;;;;;;;;;;4980781;28;19917;-67
2023/03/21 14:12:49;;;;;;;;;;;;;;;;;;4982076;28;19925;-67
2023/03/21 14:15:16;;;;;;;;;;;;;;;;;;4982172;28;19959;-68
2023/03/21 14:17:43;;;;;;;;;;;;;;;;;;4977938;28;19993;-68
2023/03/21 14:20:10;;;;;;;;;;;;;;;;;;4978159;28;19917;-67
2023/03/21 14:22:36;;;;;;;;;;;;;;;;;;4963192;28;20022;-67
2023/03/21 14:25:01;;;;;;;;;;;;;;;;;;4964933;28;19986;-68
2023/03/21 14:27:26;;;;;;;;;;;;;;;;;;4980673;28;19921;-68
2023/03/21 14:29:52;;;;;;;;;;;;;;;;;;4982724;28;19921;-67
2023/03/21 14:32:17;;;;;;;;;;;;;;;;;;4965943;28;20333;-67
2023/03/21 14:34:42;;;;;;;;;;;;;;;;;;4974962;28;20238;-67
2023/03/21 14:37:08;;;;;;;;;;;;;;;;;;4982430;28;19922;-66
2023/03/21 14:39:34;;;;;;;;;;;;;;;;;;4964855;28;19921;-67
2023/03/21 14:41:59;;;;;;;;;;;;;;;;;;4979148;28;19921;-68
2023/03/21 14:44:27;;;;;;;;;;;;;;;;;;4978725;28;19922;-66
2023/03/21 14:46:53;;;;;;;;;;;;;;;;;;4981137;28;19925;-66
2023/03/21 14:49:19;;;;;;;;;;;;;;;;;;4961429;28;20013;-66
2023/03/21 14:51:45;;;;;;;;;;;;;;;;;;4962744;28;19964;-67
2023/03/21 14:54:11;;;;;;;;;;;;;;;;;;4976456;28;19972;-67
2023/03/21 14:56:36;;;;;;;;;;;;;;;;;;4998168;28;19925;-67
2023/03/21 14:59:01;;;;;;;;;;;;;;;;;;4979937;28;19944;-66
2023/03/21 15:01:27;;;;;;;;;;;;;;;;;;4979810;28;20631;-67
2023/03/21 15:03:52;;;;;;;;;;;;;;;;;;4977552;28;19948;-67
2023/03/21 15:06:17;;;;;;;;;;;;;;;;;;4980528;28;19963;-67
2023/03/21 15:08:43;;;;;;;;;;;;;;;;;;4978577;28;19922;-67
2023/03/21 15:11:08;;;;;;;;;;;;;;;;;;4964138;28;20227;-67
2023/03/21 15:13:33;;;;;;;;;;;;;;;;;;4979956;28;19926;-67
2023/03/21 15:15:59;;;;;;;;;;;;;;;;;;4967035;28;20265;-66
2023/03/21 15:18:24;;;;;;;;;;;;;;;;;;4985981;28;20284;-66
2023/03/21 15:20:50;;;;;;;;;;;;;;;;;;4983106;28;19928;-67
2023/03/21 15:23:17;;;;;;;;;;;;;;;;;;4966683;28;20245;-66
2023/03/21 15:25:45;;;;;;;;;;;;;;;;;;4981590;28;19984;-66
2023/03/21 15:28:10;;;;;;;;;;;;;;;;;;4970849;28;20273;-67
2023/03/21 15:30:39;;;;;;;;;;;;;;;;;;4983496;28;19932;-64
2023/03/21 15:33:07;;;;;;;;;;;;;;;;;;4983983;28;20029;-66
2023/03/21 15:35:32;;;;;;;;;;;;;;;;;;4984561;28;20682;-66
2023/03/21 15:37:57;;;;;;;;;;;;;;;;;;4984416;28;20040;-66
2023/03/21 15:40:23;;;;;;;;;;;;;;;;;;4980707;28;20271;-67
2023/03/21 15:42:51;;;;;;;;;;;;;;;;;;4986320;28;20063;-67
2023/03/21 15:45:16;;;;;;;;;;;;;;;;;;4968516;28;20001;-66
2023/03/21 15:47:42;;;;;;;;;;;;;;;;;;4964418;28;19925;-67
2023/03/21 15:50:07;;;;;;;;;;;;;;;;;;4980494;28;19980;-66
2023/03/21 15:52:36;;;;;;;;;;;;;;;;;;4977794;28;19956;-66
2023/03/21 15:55:01;;;;;;;;;;;;;;;;;;4979630;28;20044;-66
2023/03/21 15:57:31;;;;;;;;;;;;;;;;;;4980222;28;19925;-66
2023/03/21 16:00:07;;;;;;;;;;;;;;;;;;4975973;28;19979;-66
2023/03/21 16:11:45;;;;;;;;;;;;;;;;;;4997129;28;20388;-64
2023/03/21 16:17:52;;;;;;;;;;;;;;;;;;4992689;28;20337;-66
2023/03/21 16:27:38;;;;;;;;;;;;;;;;;;5001292;28;19948;-66
2023/03/21 16:43:11;;;;;;;;;;;;;;;;;;5002278;28;19921;-65
2023/03/21 16:52:10;;;;;;;;;;;;;;;;;;4996731;28;20312;-65
2023/03/21 16:54:36;;;;;;;;;;;;;;;;;;4985301;28;19940;-65
2023/03/21 16:57:17;;;;;;;;;;;;;;;;;;4978636;28;20112;-65
2023/03/21 16:59:49;;;;;;;;;;;;;;;;;;4982500;28;20047;-64
2023/03/21 17:02:48;;;;;;;;;;;;;;;;;;;;;
2023/03/21 17:05:55;;;;;;;;;;;;;;;;;;4984887;28;19925;-66
2023/03/21 17:08:35;;;;;;;;;;;;;;;;;;5000569;28;19914;-65
2023/03/21 17:14:21;;;;;;;;;;;;;;;;;;;;;
2023/03/21 17:17:29;;;;;;;;;;;;;;;;;;4957620;28;20012;-65
2023/03/21 17:26:40;;;;;;;;;;;;;;;;;;5007963;28;19960;-65
2023/03/21 17:29:06;;;;;;;;;;;;;;;;;;4961286;28;20313;-67
2023/03/21 17:31:31;;;;;;;;;;;;;;;;;;4975480;28;19967;-66
2023/03/21 17:33:57;;;;;;;;;;;;;;;;;;4990803;28;21408;-66